Time;durP1;ratioP1;P1;durP2;ratioP2;P2;SDS_P1;SDS_P2;PMS_P1;PMS_P2;Temp;Humidity;BMP_temperature;BMP_pressure;BME280_temperature;BME280_humidity;BME280_pressure;Samples;Min_cycle;Max_cycle;Signal;HPM_P1;HPM_P2
2024/01/10 00:02:20;;;;;;;30.88;14.38;;;6.60;99.90;;;;;;4997115;28;20022;-85
2024/01/10 00:04:49;;;;;;;27.17;14.10;;;6.60;99.90;;;;;;4996877;28;20037;-86
2024/01/10 00:07:15;;;;;;;26.08;13.55;;;6.60;99.90;;;;;;4996652;28;20022;-86
2024/01/10 00:09:42;;;;;;;29.65;13.35;;;6.60;99.90;;;;;;4996613;28;20088;-87
2024/01/10 00:12:08;;;;;;;27.10;14.15;;;6.50;99.90;;;;;;4996697;28;20038;-86
2024/01/10 00:14:35;;;;;;;29.38;13.98;;;6.40;99.90;;;;;;4996852;28;20037;-85
2024/01/10 00:17:01;;;;;;;28.15;14.48;;;6.40;99.90;;;;;;4996877;28;20030;-87
2024/01/10 00:19:28;;;;;;;32.55;15.63;;;6.40;99.90;;;;;;5012983;28;20026;-88
2024/01/10 00:21:54;;;;;;;27.05;15.07;;;6.40;99.90;;;;;;4997033;28;20136;-88
2024/01/10 00:24:21;;;;;;;31.25;14.27;;;6.40;99.90;;;;;;4996857;28;20032;-88
2024/01/10 00:26:47;;;;;;;30.08;14.43;;;6.40;99.90;;;;;;4996973;28;20440;-88
2024/01/10 00:29:17;;;;;;;29.67;14.68;;;6.50;99.90;;;;;;4996548;28;20037;-88
2024/01/10 00:31:43;;;;;;;28.13;14.15;;;6.50;99.90;;;;;;4997016;28;20431;-88
2024/01/10 00:34:09;;;;;;;29.45;14.55;;;6.50;99.90;;;;;;4996829;28;20125;-89
2024/01/10 00:36:39;;;;;;;26.17;13.02;;;6.50;99.90;;;;;;4996996;28;20026;-88
2024/01/10 00:39:06;;;;;;;25.63;14.50;;;6.40;99.90;;;;;;4996364;28;20088;-87
2024/01/10 00:41:32;;;;;;;32.88;13.90;;;6.40;99.90;;;;;;4996734;28;20037;-87
2024/01/10 00:43:59;;;;;;;27.52;13.30;;;6.40;99.90;;;;;;4996901;28;20084;-88
2024/01/10 00:46:25;;;;;;;25.90;12.88;;;6.40;99.90;;;;;;4996824;28;20026;-87
2024/01/10 00:48:52;;;;;;;33.15;13.48;;;6.40;99.90;;;;;;4996943;28;20435;-88
2024/01/10 00:51:19;;;;;;;24.50;12.55;;;6.40;99.90;;;;;;4996777;28;20022;-88
2024/01/10 00:53:48;;;;;;;21.45;12.13;;;6.40;99.90;;;;;;4996726;28;20061;-88
2024/01/10 00:56:14;;;;;;;28.92;12.40;;;6.40;99.90;;;;;;4996702;28;20061;-87
2024/01/10 00:58:41;;;;;;;22.35;11.05;;;6.40;99.90;;;;;;4995621;28;20069;-88
2024/01/10 01:01:07;;;;;;;32.78;12.38;;;6.30;99.90;;;;;;4996508;28;20386;-88
2024/01/10 01:03:35;;;;;;;27.73;12.45;;;6.30;99.90;;;;;;4996559;28;20030;-87
2024/01/10 01:06:02;;;;;;;30.85;13.55;;;6.30;99.90;;;;;;4996460;28;20049;-88
2024/01/10 01:08:31;;;;;;;23.15;12.32;;;6.20;99.90;;;;;;4996563;28;20095;-88
2024/01/10 01:10:57;;;;;;;26.30;12.07;;;6.10;99.90;;;;;;4996546;28;20115;-88
2024/01/10 01:13:24;;;;;;;25.02;12.88;;;6.10;99.90;;;;;;4996615;28;20034;-88
2024/01/10 01:15:50;;;;;;;35.17;13.32;;;6.00;99.90;;;;;;4996681;28;20018;-88
2024/01/10 01:18:17;;;;;;;28.38;13.00;;;6.00;99.90;;;;;;4996537;28;20061;-87
2024/01/10 01:20:43;;;;;;;25.02;12.90;;;6.00;99.90;;;;;;4996485;28;20535;-88
2024/01/10 01:23:12;;;;;;;23.23;12.27;;;6.00;99.90;;;;;;4996533;28;20030;-87
2024/01/10 01:25:48;;;;;;;20.73;11.38;;;6.00;99.90;;;;;;4996491;28;20026;-87
2024/01/10 01:28:14;;;;;;;25.73;11.85;;;5.90;99.90;;;;;;4996546;28;20053;-88
2024/01/10 01:30:40;;;;;;;26.25;12.52;;;5.80;99.90;;;;;;4996385;28;20026;-88
2024/01/10 01:33:07;;;;;;;26.38;12.20;;;5.90;99.90;;;;;;4996403;28;20121;-88
2024/01/10 01:35:36;;;;;;;24.30;12.38;;;5.90;99.90;;;;;;4996284;28;20076;-88
2024/01/10 01:38:03;;;;;;;24.70;11.77;;;5.90;99.90;;;;;;4996493;28;20109;-88
2024/01/10 01:40:29;;;;;;;28.08;12.55;;;5.90;99.90;;;;;;4997770;28;20050;-88
2024/01/10 01:42:55;;;;;;;23.13;12.20;;;6.00;99.90;;;;;;5000109;28;20030;-89
2024/01/10 01:45:22;;;;;;;27.63;11.82;;;6.00;99.90;;;;;;4999913;28;20022;-88
2024/01/10 01:47:49;;;;;;;24.63;12.05;;;6.00;99.90;;;;;;4999900;28;20140;-88
2024/01/10 01:50:16;;;;;;;25.20;11.00;;;5.90;99.90;;;;;;4999822;28;20029;-88
2024/01/10 01:52:44;;;;;;;26.40;11.15;;;5.90;99.90;;;;;;4999844;28;20034;-88
2024/01/10 01:55:11;;;;;;;24.40;11.27;;;5.90;99.90;;;;;;4999567;28;20108;-87
2024/01/10 01:57:39;;;;;;;24.40;11.80;;;5.90;99.90;;;;;;4999702;28;20746;-88
2024/01/10 02:00:09;;;;;;;22.98;11.35;;;5.80;99.90;;;;;;4999596;28;20060;-88
2024/01/10 02:02:37;;;;;;;27.88;11.45;;;5.80;99.90;;;;;;4999454;28;20511;-88
2024/01/10 02:05:03;;;;;;;25.55;12.65;;;5.80;99.90;;;;;;4999648;28;20026;-88
2024/01/10 02:07:30;;;;;;;26.33;12.35;;;5.70;99.90;;;;;;4999624;28;20476;-88
2024/01/10 02:09:57;;;;;;;26.67;11.85;;;5.70;99.90;;;;;;4999324;28;20502;-88
2024/01/10 02:12:24;;;;;;;27.00;12.25;;;5.70;99.90;;;;;;4999235;28;20087;-88
2024/01/10 02:14:50;;;;;;;25.75;11.30;;;5.80;99.90;;;;;;4999338;28;20021;-88
2024/01/10 02:17:17;;;;;;;26.08;11.43;;;5.80;99.90;;;;;;4999377;28;20068;-87
2024/01/10 02:19:43;;;;;;;21.85;10.82;;;5.80;99.90;;;;;;4999272;28;20026;-88
2024/01/10 02:22:10;;;;;;;22.60;11.07;;;5.80;99.90;;;;;;4999134;28;20053;-88
2024/01/10 02:24:37;;;;;;;29.27;10.73;;;5.80;99.90;;;;;;5015352;28;20034;-88
2024/01/10 02:27:04;;;;;;;23.17;10.52;;;5.80;99.90;;;;;;4999239;28;20399;-88
2024/01/10 02:29:31;;;;;;;21.75;9.43;;;5.90;99.90;;;;;;4998808;28;20026;-87
2024/01/10 02:31:57;;;;;;;23.33;9.00;;;6.20;99.90;;;;;;4998320;28;20479;-88
2024/01/10 02:34:24;;;;;;;22.05;8.73;;;6.30;99.90;;;;;;4999075;28;20052;-88
2024/01/10 02:36:53;;;;;;;16.58;8.90;;;6.30;99.90;;;;;;4999171;28;20026;-87
2024/01/10 02:39:19;;;;;;;18.40;8.95;;;6.40;99.90;;;;;;4998736;28;20092;-88
2024/01/10 02:41:46;;;;;;;21.77;8.88;;;6.40;99.90;;;;;;4998720;28;20038;-88
2024/01/10 02:44:14;;;;;;;21.15;9.25;;;6.50;99.90;;;;;;4998817;28;20494;-88
2024/01/10 02:46:40;;;;;;;17.75;8.20;;;6.50;99.90;;;;;;4998915;28;20034;-87
2024/01/10 02:49:07;;;;;;;17.48;8.98;;;6.60;99.90;;;;;;4998745;28;20513;-88
2024/01/10 02:51:40;;;;;;;20.83;8.38;;;6.60;99.90;;;;;;4998273;28;20073;-88
2024/01/10 02:54:07;;;;;;;18.63;8.00;;;6.60;99.90;;;;;;4998630;28;20030;-87
2024/01/10 02:56:33;;;;;;;16.90;8.73;;;6.60;99.90;;;;;;4998638;28;20113;-88
2024/01/10 02:58:59;;;;;;;16.35;8.52;;;6.60;99.90;;;;;;4998513;28;20084;-87
2024/01/10 03:01:27;;;;;;;19.85;8.23;;;6.60;99.90;;;;;;4998484;28;20030;-88
2024/01/10 03:03:54;;;;;;;18.42;8.48;;;6.60;99.90;;;;;;4998570;28;20026;-87
2024/01/10 03:06:20;;;;;;;14.30;8.15;;;6.50;99.90;;;;;;4998553;28;20046;-88
2024/01/10 03:08:46;;;;;;;18.88;8.75;;;6.50;99.90;;;;;;4998387;28;20039;-88
2024/01/10 03:11:13;;;;;;;18.58;8.02;;;6.50;99.90;;;;;;4998350;28;20579;-88
2024/01/10 03:13:40;;;;;;;14.90;7.75;;;6.50;99.90;;;;;;4998212;28;20065;-88
2024/01/10 03:16:06;;;;;;;17.77;7.82;;;6.50;99.90;;;;;;4998208;28;20029;-88
2024/01/10 03:18:32;;;;;;;18.70;8.30;;;6.50;99.90;;;;;;4998382;28;20099;-88
2024/01/10 03:20:58;;;;;;;19.10;8.88;;;6.50;99.90;;;;;;4994112;28;20037;-87
2024/01/10 03:23:25;;;;;;;19.95;8.38;;;6.50;99.90;;;;;;4993913;28;20035;-87
2024/01/10 03:25:51;;;;;;;17.17;8.90;;;6.60;99.90;;;;;;4977713;28;20045;-88
2024/01/10 03:28:18;;;;;;;12.27;8.27;;;6.50;99.90;;;;;;4993804;28;20038;-88
2024/01/10 03:30:44;;;;;;;21.45;8.52;;;6.50;99.90;;;;;;4977176;28;20065;-88
2024/01/10 03:33:11;;;;;;;19.73;8.65;;;6.40;99.90;;;;;;4993689;28;20129;-88
2024/01/10 03:35:37;;;;;;;18.90;8.70;;;6.30;99.90;;;;;;4977706;28;20032;-88
2024/01/10 03:38:03;;;;;;;17.50;8.77;;;6.30;99.90;;;;;;4993360;28;20483;-87
2024/01/10 03:40:30;;;;;;;17.70;7.82;;;6.20;99.90;;;;;;4961255;28;20515;-88
2024/01/10 03:42:56;;;;;;;20.48;7.93;;;6.10;99.90;;;;;;4977591;28;20121;-88
2024/01/10 03:45:23;;;;;;;14.18;8.40;;;6.00;99.90;;;;;;4961325;28;20030;-88
2024/01/10 03:47:50;;;;;;;18.13;8.32;;;5.90;99.90;;;;;;4961195;28;20034;-88
2024/01/10 03:50:19;;;;;;;17.60;8.52;;;5.90;99.90;;;;;;4961154;28;20081;-87
2024/01/10 03:52:46;;;;;;;17.85;8.38;;;5.80;99.90;;;;;;4976784;28;20133;-88
2024/01/10 03:55:13;;;;;;;15.98;7.63;;;5.70;99.90;;;;;;4960865;28;20030;-88
2024/01/10 03:57:42;;;;;;;12.40;7.78;;;5.80;99.90;;;;;;4966004;28;20041;-88
2024/01/10 04:00:11;;;;;;;14.30;7.50;;;5.80;99.90;;;;;;5014067;28;20092;-88
2024/01/10 04:02:39;;;;;;;13.93;8.25;;;5.80;99.90;;;;;;4996478;28;20038;-90
2024/01/10 04:05:09;;;;;;;17.52;8.10;;;5.80;99.90;;;;;;5018176;28;20053;-91
2024/01/10 04:07:36;;;;;;;24.85;8.15;;;5.80;99.90;;;;;;5005012;28;20073;-91
2024/01/10 04:10:04;;;;;;;17.73;8.45;;;5.80;99.90;;;;;;4995336;28;20114;-91
2024/01/10 04:12:30;;;;;;;16.52;8.02;;;5.80;99.90;;;;;;4997002;28;20034;-90
2024/01/10 04:14:56;;;;;;;15.20;7.85;;;5.80;99.90;;;;;;4994565;28;20502;-90
2024/01/10 04:17:26;;;;;;;16.98;8.65;;;5.80;99.90;;;;;;4978008;28;20034;-91
2024/01/10 04:20:03;;;;;;;20.15;9.02;;;5.80;99.90;;;;;;4998494;28;20026;-92
2024/01/10 04:22:38;;;;;;;19.38;8.45;;;5.80;99.90;;;;;;4984696;28;20034;-92
2024/01/10 04:25:07;;;;;;;19.10;9.05;;;5.80;99.90;;;;;;4999398;28;20059;-90
2024/01/10 04:34:34;;;;;;;22.30;9.00;;;5.70;99.90;;;;;;5013562;28;20498;-88
2024/01/10 04:37:01;;;;;;;21.15;10.27;;;5.70;99.90;;;;;;4993564;28;20037;-88
2024/01/10 04:39:27;;;;;;;17.83;9.73;;;5.70;99.90;;;;;;4993253;28;20062;-88
2024/01/10 04:41:54;;;;;;;19.05;10.10;;;5.70;99.90;;;;;;5009677;28;20069;-89
2024/01/10 04:44:20;;;;;;;21.15;10.18;;;5.70;99.90;;;;;;4994611;28;20114;-89
2024/01/10 04:46:47;;;;;;;24.10;9.65;;;5.70;99.90;;;;;;5002624;28;20125;-90
2024/01/10 04:49:13;;;;;;;17.40;9.25;;;5.70;99.90;;;;;;5013305;28;20058;-91
2024/01/10 04:51:39;;;;;;;22.65;9.73;;;5.60;99.90;;;;;;4996431;28;20064;-89
2024/01/10 04:54:06;;;;;;;18.52;9.68;;;5.60;99.90;;;;;;5013314;28;20104;-91
2024/01/10 04:56:32;;;;;;;17.92;10.20;;;5.70;99.90;;;;;;4997499;28;20168;-90
2024/01/10 04:58:58;;;;;;;20.70;9.52;;;5.60;99.90;;;;;;5013444;28;20030;-89
2024/01/10 05:01:28;;;;;;;20.80;10.63;;;5.60;99.90;;;;;;4997471;28;20031;-89
2024/01/10 05:03:54;;;;;;;19.55;10.00;;;5.60;99.90;;;;;;4977897;28;20034;-90
2024/01/10 05:06:21;;;;;;;20.83;9.25;;;5.60;99.90;;;;;;5002759;28;20464;-88
2024/01/10 05:08:47;;;;;;;18.58;9.95;;;5.60;99.90;;;;;;5007889;28;20033;-89
2024/01/10 05:11:17;;;;;;;20.88;10.00;;;5.60;99.90;;;;;;4999700;28;20030;-88
2024/01/10 05:13:44;;;;;;;21.95;9.80;;;5.60;99.90;;;;;;5013486;28;20377;-89
2024/01/10 05:16:10;;;;;;;18.75;9.10;;;5.60;99.90;;;;;;5004952;28;20077;-85
2024/01/10 05:18:36;;;;;;;17.90;9.85;;;5.50;99.90;;;;;;4982515;28;20121;-88
2024/01/10 05:21:06;;;;;;;25.85;9.90;;;5.60;99.90;;;;;;5000264;28;20427;-88
2024/01/10 05:23:32;;;;;;;22.90;10.60;;;5.60;99.90;;;;;;5016473;28;20022;-87
2024/01/10 05:25:59;;;;;;;23.58;10.18;;;5.60;99.90;;;;;;4996653;28;20038;-87
2024/01/10 05:28:25;;;;;;;18.52;8.90;;;5.60;99.90;;;;;;4999835;28;20034;-88
2024/01/10 05:30:51;;;;;;;18.30;9.15;;;5.60;99.90;;;;;;5016495;28;20037;-87
2024/01/10 05:33:17;;;;;;;21.35;10.45;;;5.60;99.90;;;;;;5005907;28;20133;-88
2024/01/10 05:35:44;;;;;;;20.35;9.68;;;5.70;99.90;;;;;;4996699;28;20510;-86
2024/01/10 05:38:10;;;;;;;17.65;9.02;;;5.60;99.90;;;;;;4980261;28;20034;-85
2024/01/10 05:40:40;;;;;;;20.17;10.57;;;5.60;99.90;;;;;;4996645;28;20046;-87
2024/01/10 05:43:07;;;;;;;19.55;9.95;;;5.60;99.90;;;;;;4980391;28;20066;-88
2024/01/10 05:45:33;;;;;;;22.23;10.38;;;5.60;99.90;;;;;;4996603;28;20113;-88
2024/01/10 05:48:00;;;;;;;16.00;9.52;;;5.50;99.90;;;;;;4980333;28;20037;-87
2024/01/10 05:50:32;;;;;;;19.58;9.90;;;5.50;99.90;;;;;;4996390;28;20026;-88
2024/01/10 05:52:58;;;;;;;18.63;9.68;;;5.50;99.90;;;;;;4980024;28;20038;-87
2024/01/10 05:55:25;;;;;;;19.05;9.23;;;5.50;99.90;;;;;;4996420;28;20026;-87
2024/01/10 05:57:51;;;;;;;23.10;10.02;;;5.50;99.90;;;;;;4980313;28;20030;-87
2024/01/10 06:00:18;;;;;;;25.30;10.18;;;5.40;99.90;;;;;;4996509;28;20029;-88
2024/01/10 06:02:44;;;;;;;22.10;9.95;;;5.40;99.90;;;;;;4980230;28;20050;-87
2024/01/10 06:05:11;;;;;;;20.05;10.55;;;5.50;99.90;;;;;;4996281;28;20022;-87
2024/01/10 06:07:39;;;;;;;17.73;9.70;;;5.50;99.90;;;;;;4980097;28;20045;-87
2024/01/10 06:10:06;;;;;;;20.38;10.25;;;5.50;99.90;;;;;;4996216;28;20057;-87
2024/01/10 06:12:32;;;;;;;19.80;10.63;;;5.50;99.90;;;;;;4979973;28;20586;-87
2024/01/10 06:14:59;;;;;;;21.38;11.05;;;5.50;99.90;;;;;;4996191;28;20117;-87
2024/01/10 06:17:25;;;;;;;24.88;10.50;;;5.50;99.90;;;;;;4979725;28;20040;-89
2024/01/10 06:19:52;;;;;;;23.17;11.65;;;5.50;99.90;;;;;;4996046;28;20018;-88
2024/01/10 06:22:24;;;;;;;24.40;11.68;;;5.50;99.90;;;;;;4979764;28;20034;-87
2024/01/10 06:24:52;;;;;;;24.90;12.23;;;5.60;99.90;;;;;;4979807;28;20061;-87
2024/01/10 06:27:22;;;;;;;24.92;11.63;;;5.50;99.90;;;;;;4995274;28;20018;-87
2024/01/10 06:29:48;;;;;;;25.02;10.70;;;5.60;99.90;;;;;;4979745;28;20034;-87
2024/01/10 06:32:15;;;;;;;24.92;11.10;;;5.60;99.90;;;;;;4995806;28;20058;-87
2024/01/10 06:34:41;;;;;;;24.15;11.65;;;5.70;99.90;;;;;;4979374;28;20031;-88
2024/01/10 06:37:08;;;;;;;22.40;11.25;;;5.70;99.90;;;;;;4995606;28;20488;-87
2024/01/10 06:39:35;;;;;;;25.00;12.18;;;5.70;99.90;;;;;;4988939;28;20517;-87
2024/01/10 06:42:05;;;;;;;21.48;11.35;;;5.80;99.90;;;;;;4998826;28;20022;-88
2024/01/10 06:44:33;;;;;;;27.60;11.02;;;5.90;99.90;;;;;;4998808;28;20033;-88
2024/01/10 06:47:00;;;;;;;22.63;10.50;;;6.00;99.90;;;;;;4998783;28;20370;-91
2024/01/10 06:49:27;;;;;;;19.38;9.90;;;6.10;99.90;;;;;;4999040;28;20038;-88
2024/01/10 06:51:54;;;;;;;22.48;9.85;;;6.30;99.90;;;;;;4999100;28;20399;-90
2024/01/10 06:54:20;;;;;;;28.23;11.15;;;6.50;99.90;;;;;;4998702;28;20030;-89
2024/01/10 06:56:47;;;;;;;22.05;11.05;;;6.80;99.90;;;;;;4998804;28;20050;-91
2024/01/10 06:59:13;;;;;;;15.73;10.05;;;7.10;99.90;;;;;;4998590;28;20034;-88
2024/01/10 07:01:40;;;;;;;21.42;11.63;;;7.30;99.90;;;;;;4998495;28;20405;-90
2024/01/10 07:04:07;;;;;;;15.73;11.25;;;7.50;99.90;;;;;;4998507;28;20076;-88
2024/01/10 07:06:33;;;;;;;22.25;12.35;;;7.60;99.90;;;;;;4998427;28;20077;-88
2024/01/10 07:09:00;;;;;;;21.25;14.75;;;7.90;99.90;;;;;;4998488;28;20065;-87
2024/01/10 07:11:28;;;;;;;18.27;16.00;;;7.80;99.90;;;;;;4998339;28;20026;-89
2024/01/10 07:13:59;;;;;;;20.05;17.90;;;7.90;99.90;;;;;;4998369;28;20045;-88
2024/01/10 07:16:26;;;;;;;22.92;20.08;;;7.90;99.90;;;;;;4998338;28;20045;-88
2024/01/10 07:18:52;;;;;;;31.65;22.50;;;8.10;99.90;;;;;;4998444;28;20088;-88
2024/01/10 07:21:19;;;;;;;28.55;23.52;;;8.20;99.90;;;;;;4998192;28;20037;-88
2024/01/10 07:23:46;;;;;;;26.42;23.08;;;8.30;99.90;;;;;;4998769;28;20022;-88
2024/01/10 07:26:16;;;;;;;28.02;22.50;;;8.40;99.90;;;;;;4998444;28;20117;-89
2024/01/10 07:28:43;;;;;;;27.92;24.02;;;8.40;99.90;;;;;;4998055;28;20033;-92
2024/01/10 07:31:12;;;;;;;27.67;23.48;;;8.50;99.90;;;;;;4999683;28;20029;-91
2024/01/10 07:33:38;;;;;;;28.83;24.15;;;8.50;99.90;;;;;;4999498;28;20044;-91
2024/01/10 07:36:05;;;;;;;26.63;23.80;;;8.50;99.90;;;;;;4998582;28;20071;-90
2024/01/10 07:38:32;;;;;;;28.80;22.42;;;8.60;99.90;;;;;;4997442;28;20030;-91
2024/01/10 07:40:59;;;;;;;28.70;23.35;;;8.70;99.90;;;;;;4997823;28;20033;-89
2024/01/10 07:43:26;;;;;;;24.95;21.80;;;8.70;99.90;;;;;;4997952;28;20041;-91
2024/01/10 07:46:01;;;;;;;26.40;22.52;;;8.80;99.90;;;;;;4997970;28;20022;-91
2024/01/10 07:48:27;;;;;;;25.52;22.77;;;9.00;99.90;;;;;;4998306;28;20029;-89
2024/01/10 07:50:55;;;;;;;26.95;22.35;;;9.00;99.90;;;;;;4997705;28;20022;-85
2024/01/10 07:53:21;;;;;;;25.17;21.67;;;9.20;99.90;;;;;;4997174;28;20042;-86
2024/01/10 07:55:48;;;;;;;27.70;23.35;;;9.30;99.90;;;;;;4997097;28;20026;-85
2024/01/10 07:58:15;;;;;;;25.98;21.77;;;9.60;99.90;;;;;;4996909;28;20116;-85
2024/01/10 08:00:42;;;;;;;25.10;22.13;;;9.70;99.90;;;;;;4996895;28;20026;-85
2024/01/10 08:03:10;;;;;;;25.08;22.38;;;9.90;99.90;;;;;;4996908;28;20030;-85
2024/01/10 08:05:39;;;;;;;25.90;22.42;;;10.00;99.90;;;;;;4990232;28;20045;-85
2024/01/10 08:08:06;;;;;;;29.80;23.20;;;10.10;99.90;;;;;;5000252;28;20120;-86
2024/01/10 08:10:33;;;;;;;30.40;24.02;;;10.40;99.90;;;;;;5000070;28;20026;-86
2024/01/10 08:12:59;;;;;;;23.90;21.50;;;10.70;99.90;;;;;;5000047;28;20037;-85
2024/01/10 08:15:26;;;;;;;28.90;22.23;;;10.70;99.90;;;;;;4999953;28;20113;-85
2024/01/10 08:17:52;;;;;;;35.35;20.98;;;10.70;99.90;;;;;;5000119;28;20060;-85
2024/01/10 08:20:22;;;;;;;27.92;19.85;;;10.70;99.90;;;;;;4999811;28;20021;-85
2024/01/10 08:23:00;;;;;;;23.15;19.00;;;10.70;99.90;;;;;;5000326;28;20029;-85
2024/01/10 08:25:56;;;;;;;26.35;18.15;;;10.90;99.90;;;;;;5000476;28;20030;-85
2024/01/10 08:28:27;;;;;;;20.05;18.13;;;10.90;99.90;;;;;;5000232;28;20053;-87
2024/01/10 08:30:54;;;;;;;19.38;17.27;;;10.90;99.90;;;;;;5000124;28;20032;-86
2024/01/10 08:33:22;;;;;;;18.70;16.98;;;10.80;99.90;;;;;;5016535;28;20095;-87
2024/01/10 08:35:59;;;;;;;20.67;17.58;;;10.80;99.90;;;;;;4999976;28;20022;-87
2024/01/10 08:38:26;;;;;;;23.73;17.88;;;10.80;99.90;;;;;;4999830;28;20053;-86
2024/01/10 08:40:53;;;;;;;21.50;17.48;;;10.90;99.90;;;;;;4999908;28;20351;-86
2024/01/10 08:43:19;;;;;;;20.88;17.08;;;10.90;99.90;;;;;;4999814;28;20113;-87
2024/01/10 08:45:46;;;;;;;18.25;16.38;;;11.00;99.90;;;;;;4999514;28;20042;-86
2024/01/10 08:48:13;;;;;;;18.17;15.95;;;11.00;99.90;;;;;;5015513;28;20022;-86
2024/01/10 08:50:39;;;;;;;18.67;16.67;;;11.00;99.90;;;;;;5017633;28;20037;-87
2024/01/10 08:53:06;;;;;;;19.80;16.63;;;11.00;99.90;;;;;;5017025;28;20065;-86
2024/01/10 08:55:33;;;;;;;18.88;16.83;;;11.10;99.90;;;;;;5017053;28;20398;-87
2024/01/10 08:58:00;;;;;;;20.90;16.77;;;11.20;99.90;;;;;;5016933;28;20402;-86
2024/01/10 09:00:26;;;;;;;19.88;17.52;;;11.30;99.90;;;;;;5016626;28;20047;-87
2024/01/10 09:02:54;;;;;;;19.90;17.95;;;11.30;99.90;;;;;;5016831;28;20034;-87
2024/01/10 09:05:21;;;;;;;19.60;16.38;;;11.30;99.90;;;;;;5016878;28;20030;-87
2024/01/10 09:07:50;;;;;;;19.55;17.45;;;11.40;99.90;;;;;;5016887;28;20029;-86
2024/01/10 09:10:16;;;;;;;22.48;18.05;;;11.50;99.90;;;;;;5016854;28;20018;-86
2024/01/10 09:12:46;;;;;;;26.80;18.70;;;11.70;99.90;;;;;;5016471;28;20034;-86
2024/01/10 09:15:14;;;;;;;20.95;19.08;;;11.70;99.90;;;;;;5016352;28;20056;-87
2024/01/10 09:17:42;;;;;;;20.65;18.80;;;11.80;99.90;;;;;;5016520;28;20033;-86
2024/01/10 09:20:08;;;;;;;19.95;17.85;;;11.80;99.90;;;;;;5016570;28;20037;-86
2024/01/10 09:22:40;;;;;;;20.60;18.52;;;11.70;99.90;;;;;;5016610;28;20030;-87
2024/01/10 09:25:12;;;;;;;20.55;17.75;;;11.70;99.90;;;;;;5016827;28;20113;-88
2024/01/10 09:27:43;;;;;;;19.65;17.67;;;11.80;99.90;;;;;;5016385;28;20034;-87
2024/01/10 09:30:12;;;;;;;21.92;19.73;;;12.00;99.90;;;;;;5016378;28;20118;-86
2024/01/10 09:32:39;;;;;;;21.42;18.38;;;12.10;99.90;;;;;;4999843;28;20038;-87
2024/01/10 09:35:05;;;;;;;20.75;18.63;;;12.10;99.90;;;;;;5000006;28;20084;-87
2024/01/10 09:37:33;;;;;;;21.40;18.83;;;12.20;99.90;;;;;;5000035;28;20040;-88
2024/01/10 09:40:02;;;;;;;20.77;18.90;;;12.10;99.90;;;;;;4999726;28;20046;-87
2024/01/10 09:42:31;;;;;;;22.08;19.92;;;12.10;99.90;;;;;;5000133;28;20030;-90
2024/01/10 09:44:58;;;;;;;21.42;19.27;;;12.20;99.90;;;;;;4999866;28;20469;-88
2024/01/10 09:47:25;;;;;;;24.77;21.75;;;12.20;99.90;;;;;;4999901;28;20109;-87
2024/01/10 09:49:52;;;;;;;22.20;20.20;;;12.20;99.90;;;;;;4999929;28;20029;-87
2024/01/10 09:52:29;;;;;;;20.45;18.70;;;12.30;99.90;;;;;;4999708;28;20123;-87
2024/01/10 09:54:57;;;;;;;20.85;18.98;;;12.10;99.90;;;;;;4995312;28;20480;-86
2024/01/10 09:57:25;;;;;;;21.23;19.30;;;12.10;99.90;;;;;;4998680;28;20439;-85
2024/01/10 09:59:52;;;;;;;21.33;19.50;;;12.10;99.90;;;;;;5002134;28;20048;-85
2024/01/10 10:02:20;;;;;;;22.08;20.02;;;12.20;99.90;;;;;;5001425;28;20034;-86
2024/01/10 10:04:59;;;;;;;20.85;18.80;;;12.20;99.90;;;;;;5015851;28;20044;-86
2024/01/10 10:07:27;;;;;;;21.38;19.55;;;12.30;99.90;;;;;;4995868;28;20107;-86
2024/01/10 10:09:59;;;;;;;22.10;20.20;;;12.30;99.90;;;;;;4999445;28;20032;-85
2024/01/10 10:12:45;;;;;;;22.02;19.92;;;12.20;99.90;;;;;;4998796;28;20056;-86
2024/01/10 10:15:23;;;;;;;21.98;19.98;;;12.60;99.90;;;;;;4998911;28;20034;-86
2024/01/10 10:17:53;;;;;;;22.60;20.42;;;12.40;99.90;;;;;;4998985;28;20034;-85
2024/01/10 10:20:25;;;;;;;22.13;20.23;;;12.40;99.90;;;;;;4998890;28;20030;-86
2024/01/10 10:23:06;;;;;;;21.83;19.92;;;12.50;99.90;;;;;;4998941;28;20498;-85
2024/01/10 10:25:47;;;;;;;22.60;20.50;;;12.80;99.90;;;;;;4998801;28;20033;-86
2024/01/10 10:28:15;;;;;;;23.00;21.00;;;12.90;99.90;;;;;;4998896;28;20487;-87
2024/01/10 10:30:41;;;;;;;22.58;20.65;;;12.90;99.90;;;;;;5000116;28;20029;-89
2024/01/10 10:33:10;;;;;;;23.25;21.13;;;13.00;99.90;;;;;;4999527;28;20065;-88
2024/01/10 10:35:39;;;;;;;23.27;20.98;;;12.90;99.90;;;;;;4999520;28;20387;-91
2024/01/10 10:38:12;;;;;;;23.67;21.70;;;12.90;99.90;;;;;;4998891;28;20030;-93
2024/01/10 10:40:41;;;;;;;22.08;20.48;;;13.00;99.90;;;;;;5000579;28;20131;-91
2024/01/10 10:43:42;;;;;;;22.52;20.67;;;13.10;99.90;;;;;;5003864;28;20050;-92
2024/01/10 10:46:16;;;;;;;22.85;21.05;;;13.00;99.90;;;;;;5015546;28;20022;-93
2024/01/10 10:48:57;;;;;;;23.05;21.02;;;12.80;99.90;;;;;;4999412;28;20399;-91
2024/01/10 10:51:44;;;;;;;22.52;20.63;;;12.70;99.90;;;;;;4999518;28;20115;-90
2024/01/10 10:54:19;;;;;;;22.40;20.55;;;12.60;99.90;;;;;;5016990;28;20052;-93
2024/01/10 10:56:51;;;;;;;22.80;20.75;;;12.60;99.90;;;;;;4982035;28;20054;-91
2024/01/10 10:59:20;;;;;;;23.50;21.50;;;12.50;99.90;;;;;;4980394;28;20045;-89
2024/01/10 11:01:50;;;;;;;22.77;20.52;;;12.30;99.90;;;;;;4979577;28;20476;-90
2024/01/10 11:04:17;;;;;;;21.23;19.45;;;12.10;99.90;;;;;;4978639;28;20035;-86
2024/01/10 11:06:47;;;;;;;21.08;19.48;;;11.90;99.90;;;;;;4985265;28;20113;-86
2024/01/10 11:09:18;;;;;;;22.30;20.02;;;11.80;99.90;;;;;;5001275;28;20040;-87
2024/01/10 11:12:04;;;;;;;21.20;19.50;;;11.70;99.90;;;;;;5001198;28;20025;-86
2024/01/10 11:15:00;;;;;;;21.55;19.63;;;11.70;99.90;;;;;;5001178;28;20040;-86
2024/01/10 11:17:57;;;;;;;22.20;20.15;;;11.70;99.90;;;;;;4975392;28;20081;-86
2024/01/10 11:20:48;;;;;;;22.15;20.38;;;11.70;99.90;;;;;;4994677;28;20538;-86
2024/01/10 11:23:34;;;;;;;24.33;21.85;;;12.00;99.90;;;;;;4994629;28;20034;-86
2024/01/10 11:26:02;;;;;;;24.55;22.23;;;12.30;99.90;;;;;;4994368;28;20030;-86
2024/01/10 11:28:33;;;;;;;25.02;22.80;;;12.60;99.90;;;;;;4998029;28;20088;-86
2024/01/10 11:30:59;;;;;;;25.58;23.42;;;12.90;99.90;;;;;;4987094;28;20080;-86
2024/01/10 11:33:36;;;;;;;26.20;23.90;;;13.00;99.90;;;;;;4994158;28;20519;-86
2024/01/10 11:36:24;;;;;;;26.10;23.98;;;13.30;99.90;;;;;;4994213;28;20026;-86
2024/01/10 11:38:51;;;;;;;26.50;24.27;;;13.40;99.90;;;;;;4993907;28;20042;-86
2024/01/10 11:41:38;;;;;;;25.98;23.88;;;13.40;99.90;;;;;;4978112;28;20038;-85
2024/01/10 11:44:11;;;;;;;25.17;23.38;;;13.20;99.90;;;;;;4994294;28;20106;-85
2024/01/10 11:46:38;;;;;;;25.98;23.60;;;12.70;99.90;;;;;;4978176;28;20487;-85
2024/01/10 11:49:48;;;;;;;25.20;23.30;;;12.40;99.90;;;;;;4994164;28;20265;-85
2024/01/10 11:57:14;;;;;;;24.83;22.95;;;12.00;99.90;;;;;;5105554;23;20067;-91
2024/01/10 11:59:45;;;;;;;25.02;22.90;;;12.10;99.90;;;;;;5021492;28;20116;-92
2024/01/10 12:02:13;;;;;;;24.05;22.30;;;12.20;99.90;;;;;;5022525;28;20025;-91
2024/01/10 12:04:48;;;;;;;23.70;21.75;;;12.30;99.90;;;;;;5022537;28;20394;-92
2024/01/10 12:07:19;;;;;;;24.33;22.30;;;12.30;99.90;;;;;;5021847;28;20390;-92
2024/01/10 12:09:49;;;;;;;23.38;21.48;;;12.40;99.90;;;;;;5021603;28;20024;-92
2024/01/10 12:12:18;;;;;;;25.05;22.90;;;12.50;99.90;;;;;;5020886;28;20025;-91
2024/01/10 12:14:47;;;;;;;25.33;22.80;;;12.40;99.90;;;;;;5020888;28;20037;-92
2024/01/10 12:17:19;;;;;;;23.70;21.63;;;12.50;99.90;;;;;;5020890;28;20441;-91
2024/01/10 12:20:09;;;;;;;25.23;23.00;;;12.50;99.90;;;;;;5023048;28;20717;-92
2024/01/10 12:23:34;;;;;;;;;;;;;;;;;;;;;
2024/01/10 12:26:19;;;;;;;26.00;23.55;;;12.30;99.90;;;;;;5037778;28;20037;-89
2024/01/10 12:29:02;;;;;;;25.45;23.08;;;12.20;99.90;;;;;;5019284;28;20021;-88
2024/01/10 12:31:29;;;;;;;25.08;22.77;;;12.10;99.90;;;;;;5020092;28;20108;-87
2024/01/10 12:33:56;;;;;;;24.08;22.10;;;12.20;99.90;;;;;;5019510;28;20040;-89
2024/01/10 12:36:23;;;;;;;24.10;22.15;;;12.20;99.90;;;;;;5019513;28;20134;-87
2024/01/10 12:38:50;;;;;;;23.15;21.45;;;12.20;99.90;;;;;;5016239;28;20083;-88
2024/01/10 12:41:20;;;;;;;23.52;21.88;;;12.20;99.90;;;;;;5016285;28;20096;-87
2024/01/10 12:43:54;;;;;;;25.15;22.80;;;12.20;99.90;;;;;;4999870;28;20079;-88
2024/01/10 12:46:24;;;;;;;25.25;23.25;;;12.40;99.90;;;;;;5016022;28;20033;-86
2024/01/10 12:49:07;;;;;;;25.50;23.40;;;12.50;99.90;;;;;;5000052;28;20057;-88
2024/01/10 12:51:36;;;;;;;24.80;22.88;;;12.70;99.90;;;;;;5016090;28;20495;-85
2024/01/10 12:54:07;;;;;;;25.58;23.55;;;12.70;99.90;;;;;;4999502;28;20038;-85
2024/01/10 12:56:35;;;;;;;25.15;23.25;;;12.60;99.90;;;;;;5015375;28;20132;-85
2024/01/10 12:59:01;;;;;;;25.80;23.65;;;12.70;99.90;;;;;;4999419;28;20033;-85